Time;durP1;ratioP1;P1;durP2;ratioP2;P2;SDS_P1;SDS_P2;PMS_P1;PMS_P2;Temp;Humidity;BMP_temperature;BMP_pressure;BME280_temperature;BME280_humidity;BME280_pressure;Samples;Min_cycle;Max_cycle;Signal;HPM_P1;HPM_P2
2022/10/27 00:00:05;;;;;;;6.70;2.88;;;15.00;98.70;;;;;;5056642;28;20025;-76
2022/10/27 00:02:31;;;;;;;8.00;2.63;;;15.00;98.80;;;;;;5056555;28;20033;-76
2022/10/27 00:04:57;;;;;;;10.73;2.97;;;15.00;98.90;;;;;;5056538;28;20385;-76
2022/10/27 00:07:22;;;;;;;6.28;3.13;;;15.00;99.00;;;;;;5055472;28;20029;-76
2022/10/27 00:09:48;;;;;;;9.32;3.20;;;15.00;99.10;;;;;;5055048;28;20024;-76
2022/10/27 00:12:14;;;;;;;7.93;2.90;;;15.00;99.20;;;;;;5071637;28;20036;-76
2022/10/27 00:14:40;;;;;;;9.18;2.85;;;15.00;99.30;;;;;;5056369;28;20086;-75
2022/10/27 00:17:06;;;;;;;11.45;3.00;;;15.00;99.30;;;;;;5056051;28;20620;-76
2022/10/27 00:19:31;;;;;;;8.07;3.15;;;15.00;99.30;;;;;;5054622;28;20021;-76
2022/10/27 00:21:57;;;;;;;9.75;3.60;;;15.00;99.40;;;;;;5054959;28;20051;-76
2022/10/27 00:24:23;;;;;;;7.22;3.17;;;15.00;99.40;;;;;;5038404;28;20048;-75
2022/10/27 00:26:48;;;;;;;8.50;3.38;;;14.90;99.40;;;;;;5071398;28;20469;-75
2022/10/27 00:29:14;;;;;;;8.13;3.22;;;14.90;99.40;;;;;;5054987;28;20037;-75
2022/10/27 00:31:40;;;;;;;7.07;3.20;;;14.80;99.50;;;;;;5056062;28;20033;-76
2022/10/27 00:34:05;;;;;;;12.55;3.67;;;14.80;99.50;;;;;;5054688;28;20029;-75
2022/10/27 00:36:31;;;;;;;11.38;3.63;;;14.80;99.50;;;;;;5054434;28;20029;-76
2022/10/27 00:38:58;;;;;;;11.82;3.20;;;14.80;99.50;;;;;;5055616;28;20044;-75
2022/10/27 00:41:28;;;;;;;7.20;3.35;;;14.70;99.60;;;;;;5055973;28;20028;-76
2022/10/27 00:43:54;;;;;;;8.52;3.10;;;14.70;99.70;;;;;;5055858;28;20017;-77
2022/10/27 00:46:44;;;;;;;11.15;3.60;;;14.60;99.70;;;;;;5054443;28;20469;-76
2022/10/27 00:49:12;;;;;;;8.30;3.15;;;14.60;99.90;;;;;;5055871;28;20028;-76
2022/10/27 00:51:43;;;;;;;7.97;3.45;;;14.60;99.90;;;;;;5054370;28;20032;-76
2022/10/27 00:54:11;;;;;;;8.02;3.40;;;14.60;99.90;;;;;;5055541;28;20473;-76
2022/10/27 00:56:37;;;;;;;8.82;3.47;;;14.60;99.90;;;;;;5037717;28;20033;-76
2022/10/27 00:59:04;;;;;;;9.90;3.53;;;14.50;99.90;;;;;;5070715;28;20021;-76
2022/10/27 01:01:30;;;;;;;5.82;3.10;;;14.50;99.90;;;;;;5054431;28;20111;-76
2022/10/27 01:03:56;;;;;;;7.35;3.33;;;14.50;99.90;;;;;;5055596;28;20029;-76
2022/10/27 01:06:23;;;;;;;11.85;3.67;;;14.50;99.90;;;;;;5070730;28;20090;-76
2022/10/27 01:08:50;;;;;;;10.40;3.58;;;14.50;99.90;;;;;;5054350;28;20049;-76
2022/10/27 01:11:16;;;;;;;8.05;3.45;;;14.50;99.90;;;;;;5055420;28;20104;-76
2022/10/27 01:13:42;;;;;;;9.15;3.63;;;14.50;99.90;;;;;;5053878;28;20112;-76
2022/10/27 01:16:19;;;;;;;9.68;3.90;;;14.40;99.90;;;;;;5053771;28;20059;-76
2022/10/27 01:18:57;;;;;;;8.38;3.13;;;14.40;99.90;;;;;;5055224;28;20036;-76
2022/10/27 01:21:26;;;;;;;10.40;4.03;;;14.40;99.90;;;;;;5070437;28;20021;-76
2022/10/27 01:24:09;;;;;;;10.88;5.15;;;14.30;99.90;;;;;;5070286;28;20052;-76
2022/10/27 01:26:48;;;;;;;10.35;4.38;;;14.30;99.90;;;;;;5054746;28;20028;-76
2022/10/27 01:29:51;;;;;;;11.57;5.10;;;14.20;99.90;;;;;;5055140;28;20416;-76
2022/10/27 01:32:26;;;;;;;14.50;5.50;;;14.20;99.90;;;;;;5070346;28;20036;-76
2022/10/27 01:35:07;;;;;;;14.55;6.68;;;14.20;99.90;;;;;;5055152;28;20111;-76
2022/10/27 01:37:43;;;;;;;9.52;5.35;;;14.10;99.90;;;;;;5054818;28;20163;-77
2022/10/27 01:40:23;;;;;;;14.90;6.20;;;14.20;99.90;;;;;;5054814;28;20029;-76
2022/10/27 01:43:00;;;;;;;12.52;6.70;;;14.10;99.90;;;;;;5053236;28;20040;-76
2022/10/27 01:45:30;;;;;;;12.00;7.85;;;14.10;99.90;;;;;;5054589;28;20021;-76
2022/10/27 01:47:57;;;;;;;15.35;7.95;;;14.10;99.90;;;;;;5054544;28;20028;-76
2022/10/27 01:50:38;;;;;;;14.43;8.88;;;14.10;99.90;;;;;;5054429;28;20029;-76
2022/10/27 01:53:03;;;;;;;16.15;9.63;;;14.10;99.90;;;;;;5054317;28;20033;-76
2022/10/27 01:55:52;;;;;;;14.98;10.48;;;14.00;99.90;;;;;;5036887;28;20044;-76
2022/10/27 01:58:51;;;;;;;14.85;10.75;;;14.00;99.90;;;;;;5047605;28;20041;-76
2022/10/27 02:01:47;;;;;;;19.80;10.70;;;14.00;99.90;;;;;;5053317;28;20425;-76
2022/10/27 02:04:13;;;;;;;17.55;10.90;;;14.00;99.90;;;;;;5052794;28;20017;-76
2022/10/27 02:07:10;;;;;;;17.15;10.20;;;14.00;99.90;;;;;;5053069;28;20028;-76
2022/10/27 02:09:38;;;;;;;16.17;8.95;;;13.90;99.90;;;;;;5034104;28;20537;-76
2022/10/27 02:12:14;;;;;;;15.05;8.70;;;13.90;99.90;;;;;;5053886;28;20032;-76
2022/10/27 02:14:42;;;;;;;15.55;7.97;;;13.90;99.90;;;;;;5053263;28;20017;-76
2022/10/27 02:17:10;;;;;;;14.88;9.05;;;14.00;99.90;;;;;;5020150;28;20045;-76
2022/10/27 02:19:40;;;;;;;13.07;7.68;;;13.90;99.90;;;;;;5054265;28;20032;-76
2022/10/27 02:22:06;;;;;;;14.73;7.13;;;14.00;99.90;;;;;;5052633;28;20519;-76
2022/10/27 02:24:32;;;;;;;12.13;6.70;;;14.00;99.90;;;;;;5036187;28;20037;-76
2022/10/27 02:27:21;;;;;;;13.57;7.35;;;14.00;99.90;;;;;;5069249;28;20040;-76
2022/10/27 02:29:48;;;;;;;11.10;6.95;;;14.00;99.90;;;;;;5050723;28;20041;-76
2022/10/27 02:32:20;;;;;;;12.27;6.82;;;14.00;99.90;;;;;;5069146;28;20040;-76
2022/10/27 02:34:48;;;;;;;13.32;6.15;;;14.00;99.90;;;;;;5053466;28;20109;-76
2022/10/27 02:37:49;;;;;;;12.13;6.03;;;14.00;99.90;;;;;;5052526;28;20032;-76
2022/10/27 02:40:14;;;;;;;11.15;5.97;;;14.00;99.90;;;;;;5015022;28;20401;-76
2022/10/27 02:42:40;;;;;;;11.13;5.72;;;14.00;99.90;;;;;;5043815;28;20044;-76
2022/10/27 02:45:06;;;;;;;11.30;5.57;;;14.00;99.90;;;;;;5053461;28;20033;-76
2022/10/27 02:47:32;;;;;;;13.00;5.72;;;14.00;99.90;;;;;;5053264;28;20374;-76
2022/10/27 02:49:57;;;;;;;11.68;4.93;;;14.00;99.90;;;;;;5069078;28;20025;-76
2022/10/27 02:52:23;;;;;;;12.00;5.70;;;13.90;99.90;;;;;;5053668;28;20037;-76
2022/10/27 02:54:48;;;;;;;11.20;5.78;;;14.00;99.90;;;;;;5051337;28;20029;-76
2022/10/27 02:57:16;;;;;;;10.02;4.90;;;13.90;99.90;;;;;;5069212;28;20033;-76
2022/10/27 02:59:42;;;;;;;13.10;5.07;;;13.90;99.90;;;;;;5052339;28;20036;-76
2022/10/27 03:02:08;;;;;;;11.20;5.40;;;13.90;99.90;;;;;;5053389;28;20021;-76
2022/10/27 03:04:34;;;;;;;7.97;5.20;;;13.90;99.90;;;;;;5051922;28;20032;-76
2022/10/27 03:07:00;;;;;;;12.18;5.40;;;13.90;99.90;;;;;;5052235;28;20056;-76
2022/10/27 03:09:25;;;;;;;12.40;6.07;;;13.80;99.90;;;;;;5053515;28;20106;-76
2022/10/27 03:11:51;;;;;;;12.00;5.20;;;13.80;99.90;;;;;;5069046;28;20029;-76
2022/10/27 03:14:16;;;;;;;10.93;5.40;;;13.80;99.90;;;;;;5069055;28;20119;-77
2022/10/27 03:16:42;;;;;;;10.05;5.78;;;13.80;99.90;;;;;;5053344;28;20081;-76
2022/10/27 03:19:08;;;;;;;9.18;5.20;;;13.80;99.90;;;;;;5053255;28;20107;-76
2022/10/27 03:21:33;;;;;;;8.65;4.88;;;13.70;99.90;;;;;;5051939;28;20107;-76
2022/10/27 03:23:59;;;;;;;9.52;5.30;;;13.70;99.90;;;;;;5052018;28;20398;-76
2022/10/27 03:26:24;;;;;;;13.95;5.85;;;13.70;99.90;;;;;;5053126;28;20029;-76
2022/10/27 03:28:50;;;;;;;19.05;5.55;;;13.70;99.90;;;;;;5052011;28;20116;-76
2022/10/27 03:31:16;;;;;;;9.68;5.18;;;13.70;99.90;;;;;;5052136;28;20044;-76
2022/10/27 03:33:41;;;;;;;11.88;6.00;;;13.60;99.90;;;;;;5068838;28;20033;-76
2022/10/27 03:36:07;;;;;;;9.68;5.40;;;13.60;99.90;;;;;;5035531;28;20120;-76
2022/10/27 03:38:33;;;;;;;13.13;6.38;;;13.60;99.90;;;;;;5052736;28;20033;-76
2022/10/27 03:40:58;;;;;;;10.93;6.22;;;13.60;99.90;;;;;;5053389;28;20092;-76
2022/10/27 03:43:24;;;;;;;12.90;6.22;;;13.60;99.90;;;;;;5053425;28;20025;-76
2022/10/27 03:45:50;;;;;;;12.38;5.65;;;13.60;99.90;;;;;;5051917;28;20474;-76
2022/10/27 03:48:15;;;;;;;11.90;5.88;;;13.60;99.90;;;;;;5052871;28;20404;-76
2022/10/27 03:50:45;;;;;;;10.70;5.57;;;13.60;99.90;;;;;;5052926;28;20033;-76
2022/10/27 03:53:11;;;;;;;13.00;6.70;;;13.50;99.90;;;;;;5052929;28;20537;-76
2022/10/27 03:55:37;;;;;;;10.32;6.55;;;13.50;99.90;;;;;;5068646;28;20160;-73
2022/10/27 03:58:02;;;;;;;10.00;5.80;;;13.50;99.90;;;;;;5035336;28;20079;-76
2022/10/27 04:00:30;;;;;;;11.93;6.13;;;13.50;99.90;;;;;;5052914;28;20112;-76
2022/10/27 04:02:56;;;;;;;12.65;6.65;;;13.50;99.90;;;;;;5051869;28;20481;-76
2022/10/27 04:05:22;;;;;;;10.20;5.60;;;13.50;99.90;;;;;;5051456;28;20021;-76
2022/10/27 04:07:48;;;;;;;10.60;5.55;;;13.50;99.90;;;;;;5055981;28;20067;-76
2022/10/27 04:10:14;;;;;;;14.38;7.50;;;13.40;99.90;;;;;;5056269;28;20426;-76
2022/10/27 04:12:49;;;;;;;13.88;6.35;;;13.40;99.90;;;;;;5056588;28;20032;-76
2022/10/27 04:15:15;;;;;;;12.40;5.85;;;13.50;99.90;;;;;;5055287;28;20056;-76
2022/10/27 04:17:41;;;;;;;11.30;5.72;;;13.40;99.90;;;;;;5021810;28;20460;-76
2022/10/27 04:20:07;;;;;;;11.95;5.97;;;13.50;99.90;;;;;;5071405;28;20128;-76
2022/10/27 04:22:33;;;;;;;10.30;5.50;;;13.40;99.90;;;;;;5054867;28;20043;-76
2022/10/27 04:24:59;;;;;;;9.65;5.70;;;13.40;99.90;;;;;;5054805;28;20033;-76
2022/10/27 04:27:25;;;;;;;11.43;5.22;;;13.40;99.90;;;;;;5056238;28;20083;-76
2022/10/27 04:29:50;;;;;;;11.13;5.63;;;13.40;99.90;;;;;;5054825;28;20381;-74
2022/10/27 04:32:16;;;;;;;12.75;5.93;;;13.30;99.90;;;;;;5056446;28;20457;-76
2022/10/27 04:34:41;;;;;;;10.45;5.05;;;13.30;99.90;;;;;;5071470;28;20139;-76
2022/10/27 04:37:07;;;;;;;11.43;5.45;;;13.30;99.90;;;;;;5055873;28;20072;-74
2022/10/27 04:39:32;;;;;;;9.35;4.72;;;13.30;99.90;;;;;;5054468;28;20036;-76
2022/10/27 04:41:58;;;;;;;14.23;5.30;;;13.30;99.90;;;;;;5055734;28;20029;-76
2022/10/27 04:44:24;;;;;;;9.80;4.90;;;13.30;99.90;;;;;;5055915;28;20057;-74
2022/10/27 04:46:49;;;;;;;8.35;4.53;;;13.30;99.90;;;;;;5038065;28;20082;-75
2022/10/27 04:49:15;;;;;;;11.50;4.75;;;13.30;99.90;;;;;;5055823;28;20385;-75
2022/10/27 04:51:40;;;;;;;12.30;4.82;;;13.30;99.90;;;;;;5055836;28;20033;-75
2022/10/27 04:54:06;;;;;;;12.38;4.90;;;13.30;99.90;;;;;;5055959;28;20099;-75
2022/10/27 04:56:32;;;;;;;11.88;4.75;;;13.20;99.90;;;;;;5054291;28;20541;-75
2022/10/27 04:58:57;;;;;;;13.73;4.65;;;13.30;99.90;;;;;;5054425;28;20373;-75
2022/10/27 05:01:23;;;;;;;8.15;4.60;;;13.30;99.90;;;;;;5070878;28;20026;-75
2022/10/27 05:03:49;;;;;;;12.35;4.43;;;13.20;99.90;;;;;;5055399;28;20033;-76
2022/10/27 05:06:15;;;;;;;13.45;4.30;;;13.20;99.90;;;;;;5053887;28;20037;-75
2022/10/27 05:08:40;;;;;;;12.50;4.45;;;13.20;99.90;;;;;;5062396;28;20028;-79
2022/10/27 05:11:06;;;;;;;11.82;5.07;;;13.20;99.90;;;;;;5057132;28;20021;-79
2022/10/27 05:13:32;;;;;;;13.25;4.93;;;13.20;99.90;;;;;;5055351;28;20020;-80
2022/10/27 05:16:02;;;;;;;9.57;4.60;;;13.20;99.90;;;;;;5067940;28;20028;-79
2022/10/27 05:18:28;;;;;;;13.30;5.10;;;13.20;99.90;;;;;;5078009;28;20025;-79
2022/10/27 05:20:54;;;;;;;13.98;5.15;;;13.20;99.90;;;;;;5083064;28;20119;-79
2022/10/27 05:23:20;;;;;;;10.20;4.78;;;13.20;99.90;;;;;;5078734;28;20025;-79
2022/10/27 05:25:53;;;;;;;9.95;4.55;;;13.20;99.90;;;;;;5055430;28;20065;-79
2022/10/27 05:28:19;;;;;;;11.43;4.75;;;13.10;99.90;;;;;;5063665;28;20021;-79
2022/10/27 05:30:45;;;;;;;8.30;4.53;;;13.10;99.90;;;;;;5080761;28;20066;-79
2022/10/27 05:33:11;;;;;;;12.10;4.20;;;13.10;99.90;;;;;;5062398;28;20473;-79
2022/10/27 05:35:37;;;;;;;9.50;4.72;;;13.10;99.90;;;;;;5065942;28;20083;-79
2022/10/27 05:38:02;;;;;;;8.00;4.43;;;13.10;99.90;;;;;;5061677;28;20056;-79
2022/10/27 05:40:33;;;;;;;10.65;5.03;;;13.10;99.90;;;;;;5065668;28;20025;-79
2022/10/27 05:43:00;;;;;;;11.35;5.13;;;13.10;99.90;;;;;;5062629;28;20029;-79
2022/10/27 05:45:26;;;;;;;8.90;5.07;;;13.10;99.90;;;;;;5067761;28;20488;-79
2022/10/27 05:48:00;;;;;;;10.35;5.45;;;13.10;99.90;;;;;;5069443;28;20433;-79
2022/10/27 05:50:27;;;;;;;8.50;5.20;;;13.00;99.90;;;;;;5070767;28;20017;-79
2022/10/27 05:52:53;;;;;;;9.75;5.53;;;13.10;99.90;;;;;;5083867;28;20484;-78
2022/10/27 05:55:19;;;;;;;12.50;5.88;;;13.00;99.90;;;;;;5079834;28;20021;-78
2022/10/27 05:57:59;;;;;;;12.80;5.53;;;13.10;99.90;;;;;;5064636;28;20029;-79
2022/10/27 06:00:31;;;;;;;12.82;6.00;;;13.00;99.90;;;;;;5065621;28;20028;-79
2022/10/27 06:02:58;;;;;;;11.38;4.97;;;13.00;99.90;;;;;;5088578;28;20194;-79
2022/10/27 06:05:25;;;;;;;13.88;6.30;;;13.00;99.90;;;;;;5072654;28;20085;-79
2022/10/27 06:07:51;;;;;;;10.45;5.40;;;13.00;99.90;;;;;;5088935;28;20047;-79
2022/10/27 06:10:17;;;;;;;14.23;5.95;;;13.00;99.90;;;;;;5072503;28;20029;-79
2022/10/27 06:12:42;;;;;;;11.60;6.05;;;13.10;99.90;;;;;;5072518;28;20078;-79
2022/10/27 06:15:08;;;;;;;10.55;5.68;;;13.00;99.90;;;;;;5071694;28;20071;-79
2022/10/27 06:17:34;;;;;;;11.50;5.82;;;13.00;99.90;;;;;;5072203;28;20083;-78
2022/10/27 06:20:00;;;;;;;14.68;6.13;;;13.00;99.90;;;;;;5072340;28;20032;-78
2022/10/27 06:22:25;;;;;;;14.32;6.57;;;13.10;99.90;;;;;;5072459;28;20473;-78
2022/10/27 06:24:51;;;;;;;12.82;5.30;;;13.00;99.90;;;;;;5055654;28;20032;-79
2022/10/27 06:27:17;;;;;;;9.40;5.68;;;13.00;99.90;;;;;;5072258;28;20040;-78
2022/10/27 06:29:42;;;;;;;12.18;5.65;;;13.10;99.90;;;;;;5055459;28;20024;-79
2022/10/27 06:32:08;;;;;;;13.07;5.72;;;13.10;99.90;;;;;;5072209;28;20069;-79
2022/10/27 06:34:33;;;;;;;9.07;5.18;;;13.10;99.90;;;;;;5089002;28;20377;-78
2022/10/27 06:37:02;;;;;;;10.40;5.15;;;13.10;99.90;;;;;;5071938;28;20549;-79
2022/10/27 06:39:28;;;;;;;12.02;5.70;;;13.10;99.90;;;;;;5055902;28;20032;-79
2022/10/27 06:41:55;;;;;;;10.70;5.55;;;13.10;99.90;;;;;;5089176;28;20025;-79
2022/10/27 06:44:20;;;;;;;10.98;6.03;;;13.10;99.90;;;;;;5044550;28;20064;-81
2022/10/27 06:46:46;;;;;;;11.93;4.95;;;13.10;99.90;;;;;;5037675;28;20477;-81
2022/10/27 06:49:12;;;;;;;11.68;5.80;;;13.10;99.90;;;;;;5065666;28;20032;-80
2022/10/27 06:51:37;;;;;;;12.35;5.50;;;13.10;99.90;;;;;;5072102;28;20094;-80
2022/10/27 06:54:03;;;;;;;14.65;5.50;;;13.20;99.90;;;;;;5088891;28;20021;-81
2022/10/27 06:56:29;;;;;;;12.75;5.32;;;13.20;99.90;;;;;;5071977;28;20050;-80
2022/10/27 06:58:54;;;;;;;10.00;5.40;;;13.30;99.90;;;;;;5072246;28;20036;-80
2022/10/27 07:01:20;;;;;;;12.30;5.55;;;13.30;99.90;;;;;;5072589;28;20025;-80
2022/10/27 07:03:46;;;;;;;10.77;4.78;;;13.30;99.90;;;;;;5083816;28;20025;-80
2022/10/27 07:06:12;;;;;;;11.82;5.88;;;13.40;99.90;;;;;;5062856;28;20094;-80
2022/10/27 07:08:38;;;;;;;11.52;5.45;;;13.40;99.90;;;;;;5069311;28;20468;-79
2022/10/27 07:11:03;;;;;;;12.90;5.75;;;13.40;99.90;;;;;;5053297;28;20059;-79
2022/10/27 07:13:30;;;;;;;9.95;4.95;;;13.40;99.90;;;;;;5071258;28;20028;-79
2022/10/27 07:15:55;;;;;;;11.35;5.65;;;13.50;99.90;;;;;;5080231;28;20031;-79
2022/10/27 07:18:21;;;;;;;12.70;4.90;;;13.50;99.90;;;;;;5051691;28;20139;-79
2022/10/27 07:20:48;;;;;;;11.50;5.45;;;13.50;99.90;;;;;;5061770;28;20067;-79
2022/10/27 07:23:14;;;;;;;12.20;5.28;;;13.60;99.90;;;;;;5055839;28;20362;-79
2022/10/27 07:25:40;;;;;;;11.02;5.50;;;13.60;99.90;;;;;;5051130;28;20037;-79
2022/10/27 07:28:06;;;;;;;10.32;5.45;;;13.60;99.90;;;;;;5051659;28;20032;-79
2022/10/27 07:30:35;;;;;;;8.00;4.43;;;13.60;99.90;;;;;;5071289;28;20491;-79
2022/10/27 07:33:00;;;;;;;10.30;5.32;;;13.70;99.90;;;;;;5072499;28;20020;-79
2022/10/27 07:35:26;;;;;;;11.30;5.47;;;13.70;99.90;;;;;;5071427;28;20032;-79
2022/10/27 07:37:52;;;;;;;12.25;5.43;;;13.70;99.90;;;;;;5070981;28;20550;-79
2022/10/27 07:40:19;;;;;;;9.25;4.93;;;13.80;99.90;;;;;;5088025;28;20020;-79
2022/10/27 07:42:50;;;;;;;12.45;4.55;;;13.80;99.90;;;;;;5090562;28;20466;-79
2022/10/27 07:45:19;;;;;;;11.45;4.50;;;13.90;99.90;;;;;;5073009;28;20150;-79
2022/10/27 07:47:50;;;;;;;7.18;4.00;;;13.90;99.90;;;;;;5057237;28;20032;-79
2022/10/27 07:50:17;;;;;;;10.68;4.72;;;13.90;99.90;;;;;;5091353;28;20025;-79
2022/10/27 07:52:44;;;;;;;10.25;4.55;;;13.90;99.90;;;;;;5076072;28;20036;-79
2022/10/27 07:55:12;;;;;;;8.65;4.68;;;14.00;99.90;;;;;;5091380;28;20074;-79
2022/10/27 07:57:38;;;;;;;10.15;4.63;;;14.00;99.90;;;;;;5076247;28;20036;-79
2022/10/27 08:00:06;;;;;;;8.02;4.32;;;14.10;99.90;;;;;;5074878;28;20059;-79
2022/10/27 08:02:32;;;;;;;9.50;4.32;;;14.10;99.90;;;;;;5090502;28;20554;-79
2022/10/27 08:04:57;;;;;;;10.15;4.20;;;14.10;99.90;;;;;;5071696;28;20021;-79
2022/10/27 08:07:23;;;;;;;7.45;4.13;;;14.20;99.90;;;;;;5061241;28;20031;-79
2022/10/27 08:09:49;;;;;;;9.70;4.65;;;14.20;99.90;;;;;;5075099;28;20107;-79
2022/10/27 08:12:15;;;;;;;10.45;4.70;;;14.20;99.90;;;;;;5074558;28;20043;-79
2022/10/27 08:14:40;;;;;;;9.82;4.93;;;14.20;99.90;;;;;;5074551;28;20052;-79
2022/10/27 08:17:06;;;;;;;8.90;4.32;;;14.40;99.90;;;;;;5075680;28;20489;-79
2022/10/27 08:19:32;;;;;;;10.93;5.07;;;14.40;99.90;;;;;;5090886;28;20024;-79
2022/10/27 08:21:57;;;;;;;11.07;5.38;;;14.50;99.90;;;;;;5074564;28;20028;-78
2022/10/27 08:24:23;;;;;;;7.20;4.00;;;14.50;99.90;;;;;;5091371;28;20056;-79
2022/10/27 08:26:49;;;;;;;11.00;4.63;;;14.60;99.90;;;;;;5091200;28;20017;-79
2022/10/27 08:29:14;;;;;;;13.68;5.00;;;14.70;99.90;;;;;;5074503;28;20058;-79
2022/10/27 08:31:40;;;;;;;7.47;3.65;;;14.80;99.90;;;;;;5090350;28;20020;-79
2022/10/27 08:34:06;;;;;;;9.95;4.68;;;14.90;99.90;;;;;;5074134;28;20028;-79
2022/10/27 08:36:37;;;;;;;8.80;3.85;;;15.00;99.90;;;;;;5056132;28;20458;-79
2022/10/27 08:39:05;;;;;;;12.63;4.07;;;15.00;99.90;;;;;;5053588;28;20029;-77
2022/10/27 08:41:48;;;;;;;10.40;4.00;;;15.10;99.90;;;;;;5054551;28;20097;-78
2022/10/27 08:44:17;;;;;;;9.80;3.15;;;15.20;99.90;;;;;;5054097;28;20413;-78
2022/10/27 08:46:49;;;;;;;8.70;3.05;;;15.30;99.90;;;;;;5053876;28;20389;-79
2022/10/27 08:49:36;;;;;;;9.02;3.33;;;15.30;99.90;;;;;;5075008;28;20052;-79
2022/10/27 08:52:10;;;;;;;8.40;2.65;;;15.40;99.90;;;;;;5073670;28;20056;-79
2022/10/27 08:54:36;;;;;;;;;;;15.50;99.90;;;;;;5074310;28;20024;-79
2022/10/27 08:57:02;;;;;;;7.10;2.75;;;15.60;99.90;;;;;;5059592;28;19991;-79
2022/10/27 08:59:30;;;;;;;8.60;2.88;;;15.70;99.90;;;;;;5037226;28;20029;-79
2022/10/27 09:02:17;;;;;;;7.03;2.35;;;15.80;99.90;;;;;;5054941;28;20028;-79
2022/10/27 09:05:13;;;;;;;5.22;2.13;;;15.90;99.90;;;;;;5062306;28;20473;-79
2022/10/27 09:08:00;;;;;;;7.85;2.38;;;16.00;99.90;;;;;;5053692;28;20028;-79
2022/10/27 09:10:41;;;;;;;4.93;1.95;;;16.10;99.90;;;;;;5053887;28;20111;-79
2022/10/27 09:13:20;;;;;;;6.55;1.98;;;16.20;99.90;;;;;;5053513;28;20119;-79
2022/10/27 09:15:50;;;;;;;5.03;1.50;;;16.30;99.90;;;;;;5070200;28;20155;-79
2022/10/27 09:18:36;;;;;;;4.78;1.48;;;16.40;99.90;;;;;;5066903;28;20046;-79
2022/10/27 09:21:09;;;;;;;9.75;1.85;;;16.50;99.90;;;;;;5090139;28;20086;-79
2022/10/27 09:23:40;;;;;;;7.45;1.75;;;16.60;99.90;;;;;;5086844;28;20503;-78
2022/10/27 09:26:07;;;;;;;3.47;1.30;;;16.80;99.90;;;;;;5061572;28;20017;-79
2022/10/27 09:28:41;;;;;;;5.05;1.35;;;17.00;99.90;;;;;;5053412;28;20036;-83
2022/10/27 09:31:13;;;;;;;4.75;1.30;;;17.20;99.90;;;;;;5053532;28;20021;-82
2022/10/27 09:33:47;;;;;;;5.03;1.10;;;17.40;99.90;;;;;;5053267;28;20032;-82
2022/10/27 09:36:14;;;;;;;5.03;1.30;;;17.70;99.90;;;;;;5053104;28;20025;-83
2022/10/27 09:38:40;;;;;;;2.90;0.70;;;18.00;99.90;;;;;;5054576;28;20043;-83
2022/10/27 09:41:07;;;;;;;7.00;0.80;;;18.40;99.90;;;;;;5069346;28;20021;-84
2022/10/27 09:43:33;;;;;;;4.30;0.90;;;18.70;99.90;;;;;;5054310;28;20017;-83
2022/10/27 09:46:12;;;;;;;3.15;0.70;;;19.10;99.90;;;;;;5066219;28;20752;-83
2022/10/27 09:48:38;;;;;;;6.80;0.98;;;19.50;99.90;;;;;;5089975;28;20031;-83
2022/10/27 09:51:13;;;;;;;3.42;0.80;;;20.00;99.30;;;;;;5062226;28;20051;-83
2022/10/27 09:53:46;;;;;;;5.18;0.60;;;20.40;98.40;;;;;;5052542;28;20066;-84
2022/10/27 09:56:14;;;;;;;;;;;20.80;96.90;;;;;;5054431;28;20560;-85
2022/10/27 09:58:57;;;;;;;2.28;0.50;;;20.90;95.00;;;;;;5069041;28;19995;-83
2022/10/27 10:01:47;;;;;;;2.85;0.50;;;21.00;94.00;;;;;;5052521;28;20107;-83
2022/10/27 10:04:24;;;;;;;3.53;0.60;;;21.10;92.90;;;;;;5052286;28;20028;-84
2022/10/27 10:06:59;;;;;;;4.30;0.60;;;21.30;91.80;;;;;;5052452;28;20025;-83
2022/10/27 10:09:28;;;;;;;5.70;0.80;;;21.30;90.70;;;;;;5052312;28;20516;-84
2022/10/27 10:12:12;;;;;;;3.55;0.50;;;21.40;90.20;;;;;;5052797;28;20116;-83
2022/10/27 10:14:37;;;;;;;7.82;0.70;;;21.50;88.70;;;;;;5069042;28;20475;-86
2022/10/27 10:17:03;;;;;;;2.92;0.70;;;21.60;87.80;;;;;;5070500;28;20045;-86
2022/10/27 10:19:29;;;;;;;3.40;0.50;;;21.70;87.50;;;;;;5070661;28;20112;-88
2022/10/27 10:21:59;;;;;;;3.00;0.80;;;22.10;87.50;;;;;;5071077;28;20039;-88
2022/10/27 10:24:27;;;;;;;3.10;0.50;;;22.50;86.90;;;;;;5086737;28;20074;-87
2022/10/27 10:26:55;;;;;;;3.22;0.60;;;22.90;86.00;;;;;;5088174;28;20027;-89
2022/10/27 10:29:33;;;;;;;1.92;0.50;;;23.30;84.10;;;;;;5071102;28;20036;-87
2022/10/27 10:32:16;;;;;;;3.65;0.50;;;23.70;82.60;;;;;;5085998;28;20033;-88
2022/10/27 10:34:42;;;;;;;3.03;0.63;;;24.20;81.20;;;;;;5087086;28;20032;-87
2022/10/27 10:37:32;;;;;;;3.67;0.50;;;24.80;79.40;;;;;;5071490;28;20388;-88
2022/10/27 10:40:13;;;;;;;3.05;0.40;;;25.40;75.40;;;;;;5088504;28;20024;-87
2022/10/27 10:42:44;;;;;;;2.95;0.50;;;25.70;73.00;;;;;;5088396;28;20385;-88
2022/10/27 10:45:21;;;;;;;3.13;0.50;;;25.70;71.40;;;;;;5071194;28;20108;-88
2022/10/27 10:47:55;;;;;;;3.83;0.60;;;25.60;68.20;;;;;;5072537;28;20059;-89
2022/10/27 10:50:21;;;;;;;;;;;25.50;67.20;;;;;;5088513;28;20017;-91
2022/10/27 10:52:53;;;;;;;1.98;0.45;;;25.40;65.20;;;;;;5088146;28;19908;-89
2022/10/27 10:55:32;;;;;;;4.60;0.50;;;25.20;65.90;;;;;;5071157;28;20074;-87
2022/10/27 10:57:58;;;;;;;3.97;0.50;;;25.20;65.40;;;;;;5069565;28;20446;-91
2022/10/27 11:00:25;;;;;;;5.22;0.88;;;25.00;65.60;;;;;;5087985;28;20024;-87
2022/10/27 11:02:54;;;;;;;2.35;0.55;;;24.90;64.70;;;;;;5087098;28;20035;-87
2022/10/27 11:05:34;;;;;;;2.13;0.60;;;24.90;64.70;;;;;;5087436;28;20024;-87
2022/10/27 11:08:01;;;;;;;1.60;0.40;;;24.90;64.20;;;;;;5087821;28;20029;-84
2022/10/27 11:10:37;;;;;;;2.20;0.60;;;24.80;64.30;;;;;;5072230;28;20044;-87
2022/10/27 11:13:17;;;;;;;4.50;0.40;;;24.80;64.50;;;;;;5087925;28;20081;-85
2022/10/27 11:15:54;;;;;;;2.20;0.60;;;24.90;63.90;;;;;;5070142;28;20032;-85
2022/10/27 11:18:32;;;;;;;2.80;0.65;;;24.80;63.70;;;;;;5091133;28;20075;-87
2022/10/27 11:21:00;;;;;;;2.22;0.65;;;24.60;63.80;;;;;;5091876;28;20024;-86
2022/10/27 11:23:41;;;;;;;3.63;0.65;;;24.50;63.50;;;;;;5075053;28;20433;-88
2022/10/27 11:26:08;;;;;;;2.28;0.68;;;24.40;63.70;;;;;;5091747;28;20020;-89
2022/10/27 11:28:48;;;;;;;3.30;0.40;;;24.40;64.10;;;;;;5091975;28;20025;-87
2022/10/27 11:31:29;;;;;;;2.67;0.50;;;24.50;64.60;;;;;;5076313;28;20419;-87
2022/10/27 11:34:20;;;;;;;4.22;0.60;;;24.50;63.80;;;;;;5071971;28;20111;-87
2022/10/27 11:37:15;;;;;;;2.65;0.45;;;24.50;63.70;;;;;;5072378;28;20097;-86
2022/10/27 11:40:04;;;;;;;3.28;0.50;;;24.30;63.40;;;;;;5071998;28;20040;-86
2022/10/27 11:42:39;;;;;;;2.75;0.55;;;24.00;63.70;;;;;;5089779;28;20040;-86
2022/10/27 11:45:33;;;;;;;5.55;0.47;;;23.90;64.00;;;;;;5074245;28;20028;-86
2022/10/27 11:48:08;;;;;;;1.50;0.35;;;23.80;64.30;;;;;;5074294;28;20059;-88
2022/10/27 11:51:00;;;;;;;3.17;0.82;;;23.60;64.80;;;;;;5091177;28;20027;-87
2022/10/27 11:53:26;;;;;;;10.70;0.70;;;23.70;64.90;;;;;;5068912;28;20028;-88
2022/10/27 11:56:10;;;;;;;2.25;0.45;;;23.70;65.00;;;;;;5090570;28;20024;-87
2022/10/27 11:58:57;;;;;;;2.35;0.60;;;23.70;65.10;;;;;;5071836;28;20024;-86
2022/10/27 12:01:42;;;;;;;3.65;0.50;;;23.60;65.10;;;;;;5073902;28;20115;-89
2022/10/27 12:04:36;;;;;;;2.20;0.70;;;23.50;65.10;;;;;;5089932;28;20035;-86
2022/10/27 12:07:19;;;;;;;3.25;0.73;;;23.50;65.30;;;;;;5072496;28;20073;-86
2022/10/27 12:10:10;;;;;;;;;;;23.50;65.50;;;;;;5073621;28;20082;-90
2022/10/27 12:12:39;;;;;;;5.60;0.70;;;23.40;65.40;;;;;;5089038;28;19993;-86
2022/10/27 12:15:26;;;;;;;2.13;0.63;;;23.40;65.80;;;;;;5075389;28;20032;-85
2022/10/27 12:18:16;;;;;;;3.22;0.60;;;23.30;66.00;;;;;;5089686;28;20058;-88
2022/10/27 12:20:41;;;;;;;3.03;0.70;;;23.30;66.10;;;;;;5072639;28;20453;-87
2022/10/27 12:23:13;;;;;;;5.25;0.75;;;23.20;66.10;;;;;;5071881;28;20032;-88
2022/10/27 12:25:48;;;;;;;3.25;0.68;;;23.00;66.40;;;;;;5088978;28;20017;-87
2022/10/27 12:28:14;;;;;;;4.25;0.60;;;22.90;66.80;;;;;;5088197;28;20036;-88
2022/10/27 12:30:44;;;;;;;2.47;0.55;;;22.90;67.00;;;;;;5072113;28;20127;-88
2022/10/27 12:33:23;;;;;;;5.18;0.73;;;22.70;67.30;;;;;;5088434;28;20028;-87
2022/10/27 12:36:02;;;;;;;2.00;0.50;;;22.70;67.60;;;;;;5088530;28;20028;-85
2022/10/27 12:38:40;;;;;;;2.92;0.75;;;22.60;67.80;;;;;;5071558;28;20389;-87
2022/10/27 12:41:12;;;;;;;2.00;0.60;;;22.60;68.00;;;;;;5072798;28;20025;-86
2022/10/27 12:44:12;;;;;;;2.28;0.50;;;22.50;68.30;;;;;;5088001;28;20020;-81
2022/10/27 12:46:52;;;;;;;3.75;0.68;;;22.40;68.60;;;;;;5071852;28;20033;-81
2022/10/27 12:49:39;;;;;;;4.15;0.60;;;22.30;68.80;;;;;;5069093;28;20438;-81
2022/10/27 12:52:25;;;;;;;3.92;0.70;;;22.20;69.10;;;;;;5071558;28;20059;-81
2022/10/27 12:54:58;;;;;;;2.30;0.60;;;22.00;69.60;;;;;;5086732;28;20025;-81
2022/10/27 12:57:35;;;;;;;1.83;0.60;;;21.90;70.30;;;;;;5070107;28;20465;-81
2022/10/27 13:00:02;;;;;;;1.60;0.50;;;21.90;70.80;;;;;;5069568;28;20036;-81